createdAt,value
2022-12-09T00:02:20.631Z,99600.94
2022-12-09T00:07:23.961Z,99607.56
2022-12-09T00:12:27.487Z,99610.75
2022-12-09T00:17:32.782Z,99611.59
2022-12-09T00:22:35.922Z,99613.66
2022-12-09T00:27:39.211Z,99618.00
2022-12-09T00:32:43.790Z,99612.63
2022-12-09T00:37:47.920Z,99614.50
2022-12-09T00:42:52.164Z,99612.78
2022-12-09T00:47:56.614Z,99614.59
2022-12-09T00:52:59.679Z,99610.16
2022-12-09T00:58:03.168Z,99606.56
2022-12-09T01:03:07.937Z,99613.31
2022-12-09T01:08:12.571Z,99610.66
2022-12-09T01:13:16.921Z,99612.69
2022-12-09T01:18:21.666Z,99616.63
2022-12-09T01:23:24.918Z,99621.91
2022-12-09T01:28:27.752Z,99620.78
2022-12-09T01:33:32.236Z,99620.66
2022-12-09T01:38:35.314Z,99617.13
2022-12-09T01:43:39.353Z,99623.31
2022-12-09T01:48:47.846Z,99615.84
2022-12-09T01:53:53.073Z,99612.88
2022-12-09T01:59:02.568Z,99616.06
2022-12-09T02:04:07.245Z,99614.09
2022-12-09T02:09:11.123Z,99613.31
2022-12-09T02:14:25.237Z,99614.78
2022-12-09T02:19:40.572Z,99614.78
2022-12-09T02:24:54.955Z,99621.09
2022-12-09T02:30:09.776Z,99610.41
2022-12-09T02:35:23.343Z,99605.22
2022-12-09T02:40:33.035Z,99607.78
2022-12-09T02:45:38.748Z,99600.69
2022-12-09T02:50:46.298Z,99590.97
2022-12-09T02:55:50.488Z,99588.47
2022-12-09T03:00:56.491Z,99596.19
2022-12-09T03:06:08.218Z,99583.72
2022-12-09T03:11:14.382Z,99587.28
2022-12-09T03:16:23.489Z,99586.72
2022-12-09T03:21:33.320Z,99578.44
2022-12-09T03:26:39.651Z,99571.41
2022-12-09T03:31:43.820Z,99570.56
2022-12-09T03:36:51.632Z,99574.06
2022-12-09T03:41:58.403Z,99575.59
2022-12-09T03:47:01.786Z,99564.25
2022-12-09T03:52:12.222Z,99567.41
2022-12-09T03:57:19.300Z,99566.19
2022-12-09T04:02:23.619Z,99562.50
2022-12-09T04:07:28.430Z,99560.38
2022-12-09T04:12:31.512Z,99554.81
2022-12-09T04:17:34.330Z,99550.53
2022-12-09T04:22:38.850Z,99551.31
2022-12-09T04:27:41.733Z,99544.41
2022-12-09T04:32:45.135Z,99550.88
2022-12-09T04:37:50.433Z,99544.25
2022-12-09T04:42:53.525Z,99548.00
2022-12-09T04:47:56.567Z,99552.53
2022-12-09T04:53:01.130Z,99550.72
2022-12-09T04:58:04.058Z,99548.50
2022-12-09T05:03:07.273Z,99550.59
2022-12-09T05:08:11.622Z,99550.41
2022-12-09T05:13:15.159Z,99551.94
2022-12-09T05:18:18.296Z,99554.78
2022-12-09T05:23:23.255Z,99544.94
2022-12-09T05:28:26.298Z,99549.31
2022-12-09T05:33:29.580Z,99551.78
2022-12-09T05:38:33.937Z,99537.00
2022-12-09T05:43:37.737Z,99546.44
2022-12-09T05:48:41.574Z,99542.41
2022-12-09T05:53:46.344Z,99533.63
2022-12-09T05:58:49.316Z,99532.44
2022-12-09T06:03:54.191Z,99523.25
2022-12-09T06:09:00.933Z,99540.75
2022-12-09T06:14:04.972Z,99540.66
2022-12-09T06:19:08.160Z,99540.81
2022-12-09T06:24:12.556Z,99545.16
2022-12-09T06:29:15.799Z,99545.69
2022-12-09T06:34:18.837Z,99541.63
2022-12-09T06:39:23.422Z,99530.78
2022-12-09T06:44:26.395Z,99533.00
2022-12-09T06:49:29.540Z,99524.72
2022-12-09T06:54:35.296Z,99527.00
2022-12-09T06:59:38.239Z,99530.41
2022-12-09T07:04:41.436Z,99542.06
2022-12-09T07:09:45.829Z,99532.16
2022-12-09T07:14:49.262Z,99538.94
2022-12-09T07:19:52.182Z,99538.78
2022-12-09T07:24:57.259Z,99539.38
2022-12-09T07:30:00.524Z,99544.88
2022-12-09T07:35:03.911Z,99548.69
2022-12-09T07:40:09.348Z,99551.78
2022-12-09T07:45:13.386Z,99558.59
2022-12-09T07:50:17.205Z,99561.03
2022-12-09T07:55:21.575Z,99574.16
2022-12-09T08:00:24.508Z,99568.78
2022-12-09T08:05:27.458Z,99559.16
2022-12-09T08:10:31.830Z,99575.09
2022-12-09T08:15:34.741Z,99575.19
2022-12-09T08:20:38.539Z,99565.25
2022-12-09T08:25:43.297Z,99568.34
2022-12-09T08:30:46.500Z,99576.34
2022-12-09T08:35:50.142Z,99577.63
2022-12-09T08:40:54.766Z,99577.28
2022-12-09T08:46:01.790Z,99586.28
2022-12-09T08:51:05.861Z,99580.97
2022-12-09T08:56:12.242Z,99580.56
2022-12-09T09:01:17.424Z,99580.38
2022-12-09T09:06:21.147Z,99576.47
2022-12-09T09:11:26.941Z,99580.38
2022-12-09T09:16:30.047Z,99576.53
2022-12-09T09:21:34.575Z,99578.09
2022-12-09T09:26:40.896Z,99593.44
2022-12-09T09:31:44.239Z,99594.06
2022-12-09T09:36:47.793Z,99594.22
2022-12-09T09:41:55.493Z,99602.69
2022-12-09T09:47:00.607Z,99608.81
2022-12-09T09:52:09.616Z,99604.03
2022-12-09T09:57:18.795Z,99605.81
2022-12-09T10:02:37.914Z,99605.22
2022-12-09T10:07:43.664Z,99599.25
2022-12-09T10:13:08.078Z,99593.78
2022-12-09T10:18:19.160Z,99586.94
2022-12-09T10:23:23.419Z,99577.84
2022-12-09T10:28:31.984Z,99576.72
2022-12-09T10:33:39.010Z,99565.59
2022-12-09T10:38:42.726Z,99571.06
2022-12-09T10:43:47.335Z,99564.06
2022-12-09T10:48:58.799Z,99561.38
2022-12-09T10:54:05.023Z,99561.03
2022-12-09T10:59:20.503Z,99549.06
2022-12-09T11:04:26.374Z,99552.06
2022-12-09T11:09:32.672Z,99554.00
2022-12-09T11:14:40.475Z,99554.72
2022-12-09T11:19:45.573Z,99545.88
2022-12-09T11:24:49.046Z,99544.22
2022-12-09T11:30:12.480Z,99542.59
2022-12-09T11:35:18.937Z,99545.72
2022-12-09T11:40:22.913Z,99538.44
2022-12-09T11:45:30.904Z,99538.16
2022-12-09T11:50:36.500Z,99537.31
2022-12-09T11:55:45.095Z,99537.38
2022-12-09T12:00:59.343Z,99539.53
2022-12-09T12:06:05.147Z,99530.94
2022-12-09T12:11:15.053Z,99533.00
2022-12-09T12:16:27.278Z,99525.34
2022-12-09T12:21:47.029Z,99532.28
2022-12-09T12:27:04.794Z,99529.50
2022-12-09T12:32:40.400Z,99526.84
2022-12-09T12:37:51.790Z,99527.03
2022-12-09T12:43:23.680Z,99531.56
2022-12-09T12:48:35.179Z,99530.41
2022-12-09T12:53:46.701Z,99511.34
2022-12-09T12:59:02.858Z,99509.03
2022-12-09T13:04:18.648Z,99497.13
2022-12-09T13:09:26.684Z,99498.78
2022-12-09T13:14:34.187Z,99492.78
2022-12-09T13:19:42.670Z,99492.19
2022-12-09T13:24:56.857Z,99497.31
2022-12-09T13:30:07.619Z,99500.19
2022-12-09T13:35:17.700Z,99503.78
2022-12-09T13:40:36.646Z,99499.13
2022-12-09T13:45:50.217Z,99492.66
2022-12-09T13:50:59.598Z,99490.22
2022-12-09T13:56:05.583Z,99495.94
2022-12-09T14:01:19.287Z,99490.53
2022-12-09T14:06:27.547Z,99490.44
2022-12-09T14:11:48.480Z,99494.06
2022-12-09T14:16:51.968Z,99495.09
2022-12-09T14:22:56.657Z,99487.28
2022-12-09T14:28:36.256Z,99477.94
2022-12-09T14:33:42.163Z,99483.53
2022-12-09T14:39:15.763Z,99483.13
2022-12-09T14:44:26.420Z,99473.06
2022-12-09T14:49:30.949Z,99474.63
2022-12-09T14:54:36.568Z,99486.56
2022-12-09T14:59:49.178Z,99496.34
2022-12-09T15:04:52.827Z,99499.81
2022-12-09T15:09:57.949Z,99492.91
2022-12-09T15:15:06.960Z,99499.56
2022-12-09T15:20:23.656Z,99507.84
2022-12-09T15:25:27.385Z,99497.84
2022-12-09T15:30:34.367Z,99501.41
2022-12-09T15:35:37.359Z,99506.63
2022-12-09T15:41:00.324Z,99507.66
2022-12-09T15:46:05.438Z,99513.25
2022-12-09T15:51:15.236Z,99519.72
2022-12-09T15:56:23.284Z,99524.91
2022-12-09T16:01:30.641Z,99528.72
2022-12-09T16:06:36.192Z,99529.72
2022-12-09T16:11:40.778Z,99530.88
2022-12-09T16:16:48.194Z,99531.09
2022-12-09T16:21:54.251Z,99546.47
2022-12-09T16:26:57.610Z,99538.81
2022-12-09T16:32:21.715Z,99546.09
2022-12-09T16:37:37.344Z,99550.97
2022-12-09T16:42:41.129Z,99540.25
2022-12-09T16:47:46.156Z,99539.91
2022-12-09T16:52:49.286Z,99539.09
2022-12-09T16:57:52.607Z,99546.66
2022-12-09T17:03:02.646Z,99549.00
2022-12-09T17:08:05.910Z,99549.44
2022-12-09T17:13:08.699Z,99543.31
2022-12-09T17:18:12.860Z,99551.38
2022-12-09T17:23:15.612Z,99552.84
2022-12-09T17:28:18.368Z,99559.00
2022-12-09T17:33:25.245Z,99557.59
2022-12-09T17:38:30.330Z,99548.19
2022-12-09T17:43:33.523Z,99552.88
2022-12-09T17:48:39.389Z,99546.66
2022-12-09T17:53:43.503Z,99570.19
2022-12-09T17:58:47.205Z,99569.66
2022-12-09T18:03:56.596Z,99570.31
2022-12-09T18:09:00.861Z,99567.97
2022-12-09T18:14:04.182Z,99578.97
2022-12-09T18:19:12.701Z,99567.44
2022-12-09T18:24:15.528Z,99574.44
2022-12-09T18:29:18.393Z,99574.56
2022-12-09T18:34:23.183Z,99581.78
2022-12-09T18:39:25.935Z,99581.59
2022-12-09T18:44:28.699Z,99586.63
2022-12-09T18:49:32.846Z,99591.78
2022-12-09T18:54:36.530Z,99606.16
2022-12-09T18:59:39.316Z,99601.94
2022-12-09T19:04:43.631Z,99608.25
2022-12-09T19:09:46.492Z,99600.53
2022-12-09T19:14:49.284Z,99599.72
2022-12-09T19:19:53.422Z,99603.44
2022-12-09T19:24:56.146Z,99606.47
2022-12-09T19:29:58.953Z,99609.91
2022-12-09T19:35:03.283Z,99611.22
2022-12-09T19:40:08.439Z,99611.06
2022-12-09T19:45:14.343Z,99608.25
2022-12-09T19:50:19.878Z,99614.34
2022-12-09T19:55:22.647Z,99616.47
2022-12-09T20:00:25.459Z,99618.59
2022-12-09T20:05:29.636Z,99621.75
2022-12-09T20:10:32.414Z,99613.19
2022-12-09T20:15:37.456Z,99622.22
2022-12-09T20:20:47.177Z,99621.53
2022-12-09T20:25:51.497Z,99623.56
2022-12-09T20:30:54.377Z,99630.59
2022-12-09T20:36:04.581Z,99622.16
2022-12-09T20:41:11.028Z,99631.44
2022-12-09T20:46:16.339Z,99647.06
2022-12-09T20:51:23.688Z,99637.44
2022-12-09T20:56:27.835Z,99635.69
2022-12-09T21:01:32.640Z,99641.81
2022-12-09T21:06:39.376Z,99652.25
2022-12-09T21:11:42.269Z,99645.72
2022-12-09T21:16:46.843Z,99638.28
2022-12-09T21:21:50.932Z,99639.34
2022-12-09T21:26:55.957Z,99647.47
2022-12-09T21:31:58.656Z,99648.25
2022-12-09T21:37:02.904Z,99654.59
2022-12-09T21:42:05.847Z,99656.25
2022-12-09T21:47:08.555Z,99659.84
2022-12-09T21:52:12.625Z,99667.00
2022-12-09T21:57:15.562Z,99663.22
2022-12-09T22:02:18.388Z,99678.03
2022-12-09T22:07:22.549Z,99671.66
2022-12-09T22:12:25.360Z,99670.63
2022-12-09T22:17:28.252Z,99674.28
2022-12-09T22:22:32.348Z,99680.09
2022-12-09T22:27:35.261Z,99666.22
2022-12-09T22:32:41.544Z,99665.34
2022-12-09T22:37:48.049Z,99671.16
2022-12-09T22:42:51.339Z,99680.34
2022-12-09T22:47:55.342Z,99682.22
2022-12-09T22:52:59.466Z,99698.56
2022-12-09T22:58:02.271Z,99698.00
2022-12-09T23:03:05.215Z,99697.03
2022-12-09T23:08:09.557Z,99702.06
2022-12-09T23:13:12.537Z,99698.38
2022-12-09T23:18:15.356Z,99700.03
2022-12-09T23:23:20.561Z,99699.38
2022-12-09T23:28:23.297Z,99698.16
2022-12-09T23:33:26.070Z,99699.47
2022-12-09T23:38:30.177Z,99693.63
2022-12-09T23:43:33.811Z,99700.84
2022-12-09T23:48:37.064Z,99698.81
2022-12-09T23:53:42.303Z,99694.00
2022-12-09T23:58:45.679Z,99696.41
